Time;durP1;ratioP1;P1;durP2;ratioP2;P2;SDS_P1;SDS_P2;PMS_P1;PMS_P2;Temp;Humidity;BMP_temperature;BMP_pressure;BME280_temperature;BME280_humidity;BME280_pressure;Samples;Min_cycle;Max_cycle;Signal;HPM_P1;HPM_P2
2024/04/02 00:01:12;;;;;;;54.50;10.30;;;;;;;23.05;43.72;99032.00;108039;1253;72683;-69
2024/04/02 00:03:42;;;;;;;64.60;10.50;;;;;;;22.96;44.06;99033.10;108016;1253;60396;-69
2024/04/02 00:06:10;;;;;;;61.90;10.90;;;;;;;22.93;44.03;99028.75;108134;1253;60332;-70
2024/04/02 00:08:37;;;;;;;54.30;9.80;;;;;;;23.05;43.76;99023.37;108100;1253;72607;-70
2024/04/02 00:11:05;;;;;;;46.50;9.40;;;;;;;23.15;43.34;99017.86;108081;1256;68941;-70
2024/04/02 00:13:34;;;;;;;54.40;10.20;;;;;;;22.90;44.18;99016.35;108197;1253;71403;-69
2024/04/02 00:16:01;;;;;;;61.60;10.10;;;;;;;23.03;43.61;99012.48;108239;1253;61104;-70
2024/04/02 00:18:29;;;;;;;43.40;10.00;;;;;;;23.10;43.20;99010.10;108253;1253;61226;-70
2024/04/02 00:21:00;;;;;;;50.40;10.50;;;;;;;22.93;43.41;99008.02;108209;1253;73339;-70
2024/04/02 00:23:28;;;;;;;54.10;10.20;;;;;;;22.93;43.23;99006.20;107889;1253;70396;-70
2024/04/02 00:26:01;;;;;;;40.00;8.80;;;;;;;22.84;43.81;99007.35;108009;1253;71234;-69
2024/04/02 00:28:29;;;;;;;53.80;10.70;;;;;;;22.63;44.40;99006.84;107998;1254;61135;-69
2024/04/02 00:31:00;;;;;;;50.50;9.90;;;;;;;22.59;44.19;99005.14;108048;1252;60259;-69
2024/04/02 00:33:28;;;;;;;46.80;9.30;;;;;;;22.52;44.27;98996.27;108036;1252;74707;-68
2024/04/02 00:36:03;;;;;;;52.00;9.90;;;;;;;22.30;44.77;98997.36;107963;1256;70035;-71
2024/04/02 00:38:31;;;;;;;56.60;10.80;;;;;;;22.48;44.58;98998.27;107846;1254;71396;-70
2024/04/02 00:40:59;;;;;;;52.90;10.60;;;;;;;22.45;44.71;98993.50;108072;1254;61704;-70
2024/04/02 00:43:26;;;;;;;55.10;9.60;;;;;;;22.62;44.08;98990.33;108059;1253;60035;-69
2024/04/02 00:45:54;;;;;;;53.50;10.40;;;;;;;22.61;44.09;98991.09;107990;1253;74760;-69
2024/04/02 00:48:22;;;;;;;59.40;10.80;;;;;;;22.66;43.91;98993.48;108119;1253;69132;-70
2024/04/02 00:50:49;;;;;;;58.40;11.40;;;;;;;22.72;43.54;98992.28;108020;1253;74750;-68
2024/04/02 00:53:16;;;;;;;59.50;10.00;;;;;;;22.69;43.74;98985.98;108068;1253;61135;-68
2024/04/02 00:55:44;;;;;;;54.10;10.40;;;;;;;22.63;43.53;98982.90;108084;1253;60785;-67
2024/04/02 00:58:11;;;;;;;52.00;11.90;;;;;;;22.52;44.03;98983.34;107824;1253;73640;-70
2024/04/02 01:00:40;;;;;;;55.40;9.00;;;;;;;22.35;44.50;98983.33;108103;1253;70016;-68
2024/04/02 01:03:08;;;;;;;55.40;10.50;;;;;;;22.36;44.49;98983.33;108083;1255;72795;-67
2024/04/02 01:05:36;;;;;;;61.00;10.10;;;;;;;22.45;44.62;98973.91;107997;1253;61615;-69
2024/04/02 01:08:04;;;;;;;60.10;12.30;;;;;;;22.60;43.83;98966.88;108114;1253;61066;-68
2024/04/02 01:10:32;;;;;;;55.10;12.00;;;;;;;22.52;44.04;98968.68;108047;1253;74640;-69
2024/04/02 01:12:59;;;;;;;42.70;10.10;;;;;;;22.50;43.96;98963.38;108024;1253;70479;-68
2024/04/02 01:15:27;;;;;;;49.70;10.60;;;;;;;22.42;43.82;98963.99;108234;1254;72648;-68
2024/04/02 01:17:54;;;;;;;40.30;9.30;;;;;;;22.16;44.80;98964.53;108141;1254;61122;-67
2024/04/02 01:20:21;;;;;;;52.80;11.10;;;;;;;22.03;45.01;98962.25;108127;1258;61184;-71
2024/04/02 01:22:49;;;;;;;57.90;11.60;;;;;;;22.22;44.46;98965.36;108097;1257;73443;-69
2024/04/02 01:25:21;;;;;;;49.90;10.20;;;;;;;22.28;44.62;98963.44;107895;1257;68734;-69
2024/04/02 01:27:48;;;;;;;53.40;11.80;;;;;;;22.10;44.73;98964.29;108133;1254;70623;-70
2024/04/02 01:30:16;;;;;;;52.30;9.10;;;;;;;22.03;44.96;98961.61;107955;1253;61271;-69
2024/04/02 01:32:43;;;;;;;53.70;10.80;;;;;;;21.95;45.31;98963.14;108020;1253;59973;-70
2024/04/02 01:35:14;;;;;;;42.80;9.20;;;;;;;22.17;44.66;98962.61;108061;1253;73382;-69
2024/04/02 01:37:41;;;;;;;60.20;10.70;;;;;;;22.02;45.14;98959.49;108092;1253;69923;-67
2024/04/02 01:40:09;;;;;;;43.10;9.80;;;;;;;22.10;44.76;98956.55;108104;1253;71691;-69
2024/04/02 01:42:36;;;;;;;46.50;9.60;;;;;;;22.07;44.75;98952.09;108135;1253;61359;-69
2024/04/02 01:45:05;;;;;;;53.70;10.40;;;;;;;21.98;45.24;98945.48;108057;1253;61134;-68
2024/04/02 01:47:32;;;;;;;46.80;10.30;;;;;;;22.22;44.46;98928.88;108195;1253;74718;-69
2024/04/02 01:49:59;;;;;;;56.20;11.00;;;;;;;22.21;44.52;98928.88;107966;1253;70320;-70
2024/04/02 01:52:26;;;;;;;52.60;10.30;;;;;;;22.27;44.18;98926.61;107986;1253;72713;-70
2024/04/02 01:54:53;;;;;;;46.60;9.40;;;;;;;22.36;44.07;98930.55;108013;1253;61191;-70
2024/04/02 01:57:21;;;;;;;56.70;10.30;;;;;;;21.95;45.07;98937.73;108102;1258;61160;-69
2024/04/02 01:59:48;;;;;;;60.20;10.60;;;;;;;21.73;45.63;98931.73;108046;1253;73000;-68
2024/04/02 02:02:15;;;;;;;56.70;11.60;;;;;;;21.91;45.05;98921.73;108063;1253;68895;-69
2024/04/02 02:04:42;;;;;;;45.20;9.40;;;;;;;22.01;44.74;98916.33;108034;1256;73006;-69
2024/04/02 02:07:10;;;;;;;43.90;10.10;;;;;;;22.15;44.23;98911.02;108029;1253;61623;-70
2024/04/02 02:09:37;;;;;;;54.90;10.10;;;;;;;22.00;44.77;98910.96;108004;1253;61100;-69
2024/04/02 02:12:04;;;;;;;38.60;10.00;;;;;;;22.01;44.43;98905.46;107983;1253;73795;-67
2024/04/02 02:14:32;;;;;;;47.60;10.10;;;;;;;21.97;44.55;98909.41;107988;1253;69898;-70
2024/04/02 02:17:00;;;;;;;41.30;9.50;;;;;;;21.95;44.69;98907.84;108188;1253;71041;-69
2024/04/02 02:19:27;;;;;;;43.60;9.30;;;;;;;21.97;44.23;98905.11;108149;1255;61012;-70
2024/04/02 02:21:54;;;;;;;58.00;11.50;;;;;;;21.87;44.67;98898.02;108163;1253;61217;-69
2024/04/02 02:24:22;;;;;;;60.20;10.40;;;;;;;21.89;44.26;98900.98;108067;1253;74684;-69
2024/04/02 02:26:51;;;;;;;48.20;10.30;;;;;;;21.84;44.45;98899.75;108069;1253;69196;-71
2024/04/02 02:29:23;;;;;;;50.20;10.10;;;;;;;21.80;44.73;98893.16;108069;1253;71731;-69
2024/04/02 02:31:50;;;;;;;47.10;10.30;;;;;;;21.79;44.70;98891.11;108072;1253;61141;-70
2024/04/02 02:34:18;;;;;;;52.30;9.90;;;;;;;21.81;44.50;98885.39;108089;1253;61142;-72
2024/04/02 02:36:45;;;;;;;38.10;9.60;;;;;;;21.72;44.97;98881.30;108096;1252;73445;-70
2024/04/02 02:39:12;;;;;;;55.20;10.50;;;;;;;21.71;44.40;98882.39;108059;1253;70140;-70
2024/04/02 02:41:39;;;;;;;64.30;10.10;;;;;;;21.71;44.68;98886.04;108044;1253;72743;-69
2024/04/02 02:44:07;;;;;;;66.30;11.20;;;;;;;21.78;44.25;98882.64;108135;1253;62205;-71
2024/04/02 02:46:34;;;;;;;40.30;10.40;;;;;;;21.81;44.29;98880.20;107954;1253;59328;-69
2024/04/02 02:49:01;;;;;;;42.60;8.60;;;;;;;21.71;44.27;98881.61;108087;1253;74666;-69
2024/04/02 02:51:29;;;;;;;60.90;10.50;;;;;;;21.75;44.03;98879.90;108121;1252;70702;-70
2024/04/02 02:53:56;;;;;;;50.40;11.60;;;;;;;21.67;44.61;98883.80;108082;1253;71643;-71
2024/04/02 02:56:23;;;;;;;43.60;11.10;;;;;;;21.59;44.77;98883.72;108104;1252;61703;-70
2024/04/02 02:58:51;;;;;;;58.60;10.80;;;;;;;21.47;45.07;98881.36;108088;1253;59987;-70
2024/04/02 03:01:18;;;;;;;52.40;11.30;;;;;;;21.53;44.92;98879.56;108206;1252;73519;-69
2024/04/02 03:03:47;;;;;;;53.10;11.30;;;;;;;21.59;44.53;98882.32;108124;1253;70174;-70
2024/04/02 03:06:14;;;;;;;45.70;11.10;;;;;;;21.77;44.37;98886.88;108106;1253;72628;-69
2024/04/02 03:08:41;;;;;;;47.30;11.00;;;;;;;21.45;45.00;98885.17;108170;1252;61712;-69
2024/04/02 03:11:09;;;;;;;42.70;11.10;;;;;;;21.29;45.17;98882.83;108182;1252;61369;-70
2024/04/02 03:13:36;;;;;;;52.00;11.70;;;;;;;21.08;45.71;98885.65;108172;1252;74659;-69
2024/04/02 03:16:04;;;;;;;62.60;12.20;;;;;;;20.87;46.16;98877.93;108097;1253;70481;-70
2024/04/02 03:18:32;;;;;;;56.50;11.40;;;;;;;20.92;46.08;98879.08;108046;1254;71456;-69
2024/04/02 03:20:59;;;;;;;55.40;11.00;;;;;;;20.88;46.30;98873.56;107989;1253;61125;-69
2024/04/02 03:23:27;;;;;;;50.20;11.60;;;;;;;20.83;46.13;98867.15;108084;1252;60700;-69
2024/04/02 03:25:56;;;;;;;46.40;10.60;;;;;;;20.76;46.49;98860.23;108080;1254;73441;-67
2024/04/02 03:28:25;;;;;;;60.30;12.00;;;;;;;20.68;46.37;98860.94;108113;1253;69935;-68
2024/04/02 03:30:57;;;;;;;45.80;11.10;;;;;;;20.60;46.49;98859.62;108123;1253;72577;-69
2024/04/02 03:33:25;;;;;;;45.30;11.30;;;;;;;20.58;46.64;98857.45;108101;1252;61230;-66
2024/04/02 03:35:53;;;;;;;49.70;12.30;;;;;;;20.65;46.32;98860.17;108132;1253;61251;-68
2024/04/02 03:38:20;;;;;;;34.40;9.00;;;;;;;20.56;46.70;98862.81;108116;1257;75250;-67
2024/04/02 03:40:48;;;;;;;46.60;10.20;;;;;;;20.21;47.72;98863.03;108135;1253;69491;-69
2024/04/02 03:43:15;;;;;;;55.90;11.10;;;;;;;20.13;47.72;98857.17;108043;1252;71171;-68
2024/04/02 03:45:43;;;;;;;47.10;10.30;;;;;;;20.29;47.49;98852.73;108118;1253;61227;-68
2024/04/02 03:48:11;;;;;;;47.90;10.70;;;;;;;20.34;47.25;98853.90;108377;1252;61035;-67
2024/04/02 03:50:38;;;;;;;52.70;10.70;;;;;;;20.35;47.21;98851.33;108109;1253;74713;-66
2024/04/02 03:53:06;;;;;;;56.90;10.90;;;;;;;20.24;47.47;98851.63;108080;1253;70482;-67
2024/04/02 03:55:34;;;;;;;50.00;9.90;;;;;;;20.22;47.16;98855.80;108104;1253;72830;-69
2024/04/02 03:58:03;;;;;;;50.10;10.60;;;;;;;20.09;47.95;98862.56;108162;1252;61149;-69
2024/04/02 04:00:30;;;;;;;47.40;9.50;;;;;;;20.31;47.31;98856.27;108162;1252;61205;-69
2024/04/02 04:02:58;;;;;;;48.20;10.80;;;;;;;20.32;47.22;98846.61;108072;1256;74709;-69
2024/04/02 04:05:25;;;;;;;50.90;10.30;;;;;;;20.22;47.62;98844.36;108072;1253;70857;-69
2024/04/02 04:07:52;;;;;;;58.40;10.90;;;;;;;20.23;47.64;98842.65;108096;1253;72655;-70
2024/04/02 04:10:21;;;;;;;47.10;11.00;;;;;;;20.21;47.61;98840.55;108059;1256;61723;-70
2024/04/02 04:12:48;;;;;;;54.30;11.10;;;;;;;20.44;47.11;98829.93;108091;1252;59980;-69
2024/04/02 04:15:16;;;;;;;61.90;12.50;;;;;;;20.38;46.93;98819.11;108147;1253;73597;-68
2024/04/02 04:17:43;;;;;;;45.30;9.10;;;;;;;20.34;47.12;98820.08;108094;1253;68845;-68
2024/04/02 04:20:10;;;;;;;55.40;10.10;;;;;;;20.50;46.50;98814.55;108067;1253;71469;-70
2024/04/02 04:22:37;;;;;;;49.90;9.70;;;;;;;20.56;46.50;98813.27;108037;1253;61232;-70
2024/04/02 04:25:05;;;;;;;40.90;9.30;;;;;;;20.48;46.62;98809.95;108090;1253;59334;-68
2024/04/02 04:27:36;;;;;;;62.80;12.20;;;;;;;20.45;46.65;98806.42;108076;1252;73657;-70
2024/04/02 04:30:05;;;;;;;48.10;9.60;;;;;;;20.59;46.49;98802.96;108126;1253;67794;-68
2024/04/02 04:32:35;;;;;;;45.40;10.20;;;;;;;20.68;46.24;98803.66;108068;1252;71691;-69
2024/04/02 04:35:03;;;;;;;55.70;10.00;;;;;;;20.63;46.19;98797.36;108016;1254;61263;-69
2024/04/02 04:37:31;;;;;;;42.30;9.40;;;;;;;20.56;46.55;98790.39;108013;1252;60022;-70
2024/04/02 04:39:58;;;;;;;41.90;10.40;;;;;;;20.60;46.27;98788.77;108088;1253;73417;-69
2024/04/02 04:42:26;;;;;;;47.40;9.80;;;;;;;20.68;46.14;98787.38;108041;1253;69068;-70
2024/04/02 04:44:53;;;;;;;50.70;10.80;;;;;;;20.75;46.16;98777.52;108096;1253;72649;-70
2024/04/02 04:47:21;;;;;;;46.60;9.80;;;;;;;20.95;45.85;98773.38;108051;1254;61116;-68
2024/04/02 04:49:48;;;;;;;48.50;10.80;;;;;;;20.84;45.92;98767.70;108099;1252;59138;-69
2024/04/02 04:52:16;;;;;;;59.30;9.70;;;;;;;20.94;45.55;98766.62;108161;1253;73466;-67
2024/04/02 04:54:49;;;;;;;57.20;9.60;;;;;;;20.86;45.50;98766.75;107869;1253;70081;-70
2024/04/02 04:57:16;;;;;;;50.20;10.50;;;;;;;20.92;45.58;98759.17;108065;1253;71526;-70
2024/04/02 04:59:44;;;;;;;42.80;10.40;;;;;;;21.09;45.33;98752.23;108065;1253;61276;-69
2024/04/02 05:02:11;;;;;;;61.60;10.80;;;;;;;21.23;44.90;98747.02;108082;1253;61129;-70
2024/04/02 05:04:38;;;;;;;51.70;10.10;;;;;;;21.41;44.69;98741.65;108039;1253;74610;-70
2024/04/02 05:07:23;;;;;;;48.60;9.80;;;;;;;21.61;44.24;98733.21;108090;1253;70641;-71
2024/04/02 05:09:50;;;;;;;63.90;10.30;;;;;;;21.57;44.25;98734.77;107987;1253;72451;-70
2024/04/02 05:12:18;;;;;;;51.10;11.10;;;;;;;21.77;43.66;98733.25;108061;1253;61813;-72
2024/04/02 05:14:45;;;;;;;46.60;10.90;;;;;;;21.87;43.84;98732.23;108146;1253;61132;-70
2024/04/02 05:17:13;;;;;;;56.60;12.60;;;;;;;21.88;43.59;98734.20;108004;1253;73426;-70
2024/04/02 05:19:40;;;;;;;48.30;11.00;;;;;;;21.88;43.46;98734.88;108121;1253;69291;-70
2024/04/02 05:22:08;;;;;;;41.20;9.80;;;;;;;22.01;43.44;98728.35;108049;1253;72635;-70
2024/04/02 05:24:36;;;;;;;58.90;10.40;;;;;;;22.13;43.00;98729.64;107937;1253;61267;-70
2024/04/02 05:27:03;;;;;;;57.80;10.50;;;;;;;22.16;43.00;98724.13;108003;1253;61156;-70
2024/04/02 05:29:31;;;;;;;40.20;10.10;;;;;;;22.16;43.10;98728.23;107964;1253;74964;-70
2024/04/02 05:31:58;;;;;;;49.00;10.80;;;;;;;22.31;42.86;98724.88;108022;1253;69047;-71
2024/04/02 05:34:25;;;;;;;55.20;10.80;;;;;;;22.52;42.72;98719.58;108060;1254;72714;-69
2024/04/02 05:36:52;;;;;;;55.90;10.40;;;;;;;22.79;42.29;98720.66;108067;1253;61144;-71
2024/04/02 05:39:20;;;;;;;40.80;9.50;;;;;;;22.90;41.71;98719.10;108047;1252;61366;-70
2024/04/02 05:41:47;;;;;;;49.40;9.80;;;;;;;22.74;42.00;98716.91;108064;1257;74630;-70
2024/04/02 05:44:14;;;;;;;57.70;10.50;;;;;;;22.76;42.10;98712.91;108129;1253;68907;-71
2024/04/02 05:46:42;;;;;;;51.10;8.80;;;;;;;22.71;42.06;98710.06;108111;1253;71379;-70
2024/04/02 05:49:09;;;;;;;43.10;8.90;;;;;;;22.83;42.14;98709.14;108115;1253;61362;-69
2024/04/02 05:51:36;;;;;;;62.90;10.60;;;;;;;22.95;41.71;98706.55;108059;1252;61120;-69
2024/04/02 05:54:04;;;;;;;44.70;10.30;;;;;;;23.26;41.58;98710.05;108078;1253;72418;-69
2024/04/02 05:56:31;;;;;;;37.50;8.60;;;;;;;23.61;41.13;98709.52;107977;1253;69985;-68
2024/04/02 05:58:58;;;;;;;48.50;9.10;;;;;;;23.72;40.46;98709.35;108099;1257;71289;-68
2024/04/02 06:01:29;;;;;;;36.00;8.50;;;;;;;23.49;41.04;98710.37;108207;1257;61661;-70
2024/04/02 06:03:56;;;;;;;45.90;10.20;;;;;;;23.73;40.69;98708.94;108088;1252;61347;-69
2024/04/02 06:06:23;;;;;;;52.70;9.30;;;;;;;23.88;40.40;98698.42;108184;1253;73407;-69
2024/04/02 06:08:51;;;;;;;55.70;9.70;;;;;;;24.05;40.27;98693.05;108055;1253;68886;-70
2024/04/02 06:11:18;;;;;;;39.60;9.00;;;;;;;24.51;39.65;98688.61;108103;1253;71502;-69
2024/04/02 06:13:46;;;;;;;51.80;10.10;;;;;;;24.91;39.20;98678.67;108228;1252;61680;-71
2024/04/02 06:16:13;;;;;;;48.30;9.00;;;;;;;25.42;38.11;98668.88;108127;1253;62259;-69
2024/04/02 06:18:40;;;;;;;50.20;9.50;;;;;;;25.63;37.37;98663.86;108173;1253;75334;-68
2024/04/02 06:21:08;;;;;;;42.20;8.20;;;;;;;25.83;36.99;98661.19;108277;1253;69226;-69
2024/04/02 06:23:35;;;;;;;52.80;9.20;;;;;;;26.12;36.43;98657.08;108095;1253;74894;-69
2024/04/02 06:26:03;;;;;;;29.70;6.60;;;;;;;26.37;35.96;98659.71;108141;1253;61334;-71
2024/04/02 06:28:30;;;;;;;56.50;8.80;;;;;;;26.35;35.87;98652.19;108191;1252;61142;-69
2024/04/02 06:30:57;;;;;;;51.10;7.80;;;;;;;26.58;35.18;98647.49;107977;1260;75024;-70
2024/04/02 06:33:25;;;;;;;46.40;9.10;;;;;;;26.77;34.94;98644.77;108133;1253;70427;-70
2024/04/02 06:35:52;;;;;;;48.50;9.20;;;;;;;26.80;34.64;98642.93;108107;1253;72388;-70
2024/04/02 06:38:19;;;;;;;45.80;7.60;;;;;;;26.75;34.89;98644.93;108020;1253;61135;-69
2024/04/02 06:40:50;;;;;;;;;;;;;;;26.94;34.62;98645.51;108068;1253;61145;-70
2024/04/02 06:43:18;;;;;;;46.30;8.00;;;;;;;27.01;34.16;98643.42;108154;1258;73602;-70
2024/04/02 06:45:59;;;;;;;44.80;8.50;;;;;;;27.18;34.20;98642.38;108020;1252;70569;-71
2024/04/02 06:48:26;;;;;;;46.50;9.60;;;;;;;27.34;33.49;98641.31;107993;1253;71455;-69
2024/04/02 06:51:05;;;;;;;49.30;8.60;;;;;;;27.53;33.22;98639.38;108025;1255;61099;-71
2024/04/02 06:53:32;;;;;;;54.30;10.00;;;;;;;27.56;33.38;98633.41;108128;1253;61134;-70
2024/04/02 06:55:59;;;;;;;38.90;7.30;;;;;;;27.82;32.83;98637.53;108143;1258;75632;-70
2024/04/02 06:58:28;;;;;;;44.90;8.50;;;;;;;28.02;32.47;98636.89;108127;1253;72657;-69
2024/04/02 07:00:55;;;;;;;57.30;9.50;;;;;;;28.17;32.32;98635.23;107978;1256;73598;-70
2024/04/02 07:03:22;;;;;;;44.20;8.90;;;;;;;28.49;31.79;98632.86;108021;1253;61250;-71
2024/04/02 07:05:52;;;;;;;58.90;9.40;;;;;;;28.89;31.34;98621.98;108024;1253;61046;-69
2024/04/02 07:08:26;;;;;;;49.00;9.00;;;;;;;28.70;31.24;98612.27;108051;1253;73957;-70
2024/04/02 07:11:11;;;;;;;58.10;9.20;;;;;;;28.74;31.41;98604.13;107968;1253;71289;-70
2024/04/02 07:13:39;;;;;;;54.20;9.40;;;;;;;29.00;30.87;98600.78;107990;1253;75003;-70
2024/04/02 07:16:06;;;;;;;49.60;9.60;;;;;;;29.16;30.69;98593.58;108018;1252;61212;-71
2024/04/02 07:18:35;;;;;;;43.10;9.30;;;;;;;29.24;30.55;98590.08;107946;1253;61247;-70
2024/04/02 07:21:04;;;;;;;55.40;9.70;;;;;;;29.65;29.99;98585.44;108078;1253;76731;-69
2024/04/02 07:23:32;;;;;;;49.80;8.60;;;;;;;30.06;29.51;98581.84;108078;1257;70622;-68
2024/04/02 07:26:00;;;;;;;39.70;8.00;;;;;;;30.15;29.02;98578.14;108054;1258;74944;-70
2024/04/02 07:28:27;;;;;;;60.00;10.90;;;;;;;30.20;29.17;98573.71;108053;1253;62423;-69
2024/04/02 07:30:54;;;;;;;49.20;10.20;;;;;;;30.36;28.76;98567.11;108038;1253;61016;-71
2024/04/02 07:33:22;;;;;;;43.10;10.00;;;;;;;30.60;28.61;98561.95;108051;1253;74936;-71
2024/04/02 07:35:58;;;;;;;46.90;9.40;;;;;;;30.09;28.65;98557.47;108082;1253;71438;-72
2024/04/02 07:38:26;;;;;;;44.20;8.30;;;;;;;30.02;28.88;98557.23;108118;1253;75376;-71
2024/04/02 07:40:53;;;;;;;44.70;9.00;;;;;;;30.40;28.83;98556.64;108082;1253;61349;-69
2024/04/02 07:43:20;;;;;;;52.10;8.20;;;;;;;30.92;28.16;98553.44;108010;1252;62285;-69
2024/04/02 07:45:51;;;;;;;58.70;8.80;;;;;;;31.04;27.74;98547.08;108210;1252;74495;-70
2024/04/02 07:48:20;;;;;;;;;;;;;;;31.11;27.50;98542.34;108156;1253;70875;-68
2024/04/02 07:50:49;;;;;;;40.20;8.40;;;;;;;31.37;27.46;98543.41;108216;1258;75390;-70
2024/04/02 07:53:16;;;;;;;48.40;9.80;;;;;;;31.50;27.43;98540.38;108359;1253;61106;-71
2024/04/02 07:55:44;;;;;;;48.40;9.50;;;;;;;32.09;26.62;98536.92;108143;1253;60667;-70
2024/04/02 07:58:12;;;;;;;49.60;9.40;;;;;;;32.36;26.16;98535.75;108185;1252;76042;-69
2024/04/02 08:00:41;;;;;;;56.20;9.30;;;;;;;32.50;25.98;98525.40;108155;1253;71432;-71
2024/04/02 08:03:09;;;;;;;45.80;8.60;;;;;;;32.54;25.77;98513.85;108083;1255;71532;-70
2024/04/02 08:05:36;;;;;;;43.00;9.10;;;;;;;32.55;25.54;98507.88;108152;1253;62276;-68
2024/04/02 08:08:04;;;;;;;52.10;8.60;;;;;;;32.51;25.45;98496.89;108041;1253;62143;-69
2024/04/02 08:10:31;;;;;;;41.70;9.00;;;;;;;32.34;25.28;98493.50;108079;1253;74739;-71
2024/04/02 08:12:59;;;;;;;43.60;8.60;;;;;;;32.20;25.44;98483.27;108093;1253;69584;-71
2024/04/02 08:15:26;;;;;;;41.20;7.80;;;;;;;32.37;25.48;98472.04;108141;1252;71501;-69
2024/04/02 08:17:53;;;;;;;60.30;9.50;;;;;;;32.63;25.17;98464.93;108016;1253;61245;-69
2024/04/02 08:22:25;;;;;;;55.00;10.80;;;;;;;32.16;25.79;98461.59;105009;1292;600935;-70
2024/04/02 08:24:55;;;;;;;46.30;7.60;;;;;;;33.19;24.67;98460.20;107784;1256;59759;-69
2024/04/02 08:27:22;;;;;;;55.90;10.30;;;;;;;32.78;24.76;98459.96;107945;1254;60382;-71
2024/04/02 08:29:50;;;;;;;50.30;9.80;;;;;;;32.40;25.30;98450.86;107980;1254;75266;-71
2024/04/02 08:32:18;;;;;;;42.60;9.80;;;;;;;32.33;25.89;98448.52;107923;1254;68996;-70
2024/04/02 08:34:46;;;;;;;59.50;8.50;;;;;;;32.24;26.24;98436.95;107950;1257;71807;-70
2024/04/02 08:37:14;;;;;;;60.60;9.60;;;;;;;32.20;26.20;98431.20;107891;1254;178132;-70
2024/04/02 08:39:41;;;;;;;53.90;9.60;;;;;;;32.03;26.25;98430.85;108000;1257;59480;-70
2024/04/02 08:42:08;;;;;;;46.40;8.80;;;;;;;32.30;26.67;98430.05;107988;1254;72045;-69
2024/04/02 08:44:50;;;;;;;58.10;9.40;;;;;;;32.60;26.37;98427.93;108025;1256;71747;-70
2024/04/02 08:47:17;;;;;;;51.90;9.30;;;;;;;32.81;26.24;98423.29;107878;1254;74940;-69
2024/04/02 08:49:45;;;;;;;56.20;9.70;;;;;;;32.80;26.03;98427.23;108080;1254;60909;-70
2024/04/02 08:52:13;;;;;;;50.40;8.90;;;;;;;32.90;26.09;98419.59;107926;1254;60447;-70
2024/04/02 08:54:40;;;;;;;46.50;9.20;;;;;;;32.88;25.97;98420.25;107985;1254;72022;-69
2024/04/02 08:57:07;;;;;;;56.10;8.50;;;;;;;32.63;26.37;98414.54;107997;1254;70646;-69
2024/04/02 08:59:36;;;;;;;55.90;9.30;;;;;;;32.73;26.28;98412.35;108011;1254;71510;-70
2024/04/02 09:02:03;;;;;;;59.70;8.70;;;;;;;32.61;26.31;98411.11;107730;1254;62151;-70
2024/04/02 09:04:32;;;;;;;50.30;8.60;;;;;;;32.63;26.22;98410.00;107966;1254;60430;-70
2024/04/02 09:07:00;;;;;;;45.60;8.20;;;;;;;32.66;26.24;98406.58;107995;1254;74276;-70
2024/04/02 09:09:27;;;;;;;40.70;7.80;;;;;;;32.80;25.91;98403.23;107950;1254;69178;-70
2024/04/02 09:11:54;;;;;;;49.70;8.60;;;;;;;32.81;26.01;98399.41;107922;1254;73080;-72
2024/04/02 09:14:23;;;;;;;61.00;9.40;;;;;;;32.89;25.97;98396.23;108053;1254;61091;-70
2024/04/02 09:16:54;;;;;;;38.40;7.50;;;;;;;33.21;25.71;98383.96;107967;1254;60224;-71
2024/04/02 09:19:21;;;;;;;45.90;8.40;;;;;;;33.54;25.16;98383.97;107807;1254;76141;-70
2024/04/02 09:21:49;;;;;;;43.40;8.30;;;;;;;33.45;25.19;98377.67;107882;1254;69293;-69
2024/04/02 09:24:17;;;;;;;53.30;8.80;;;;;;;33.48;25.10;98369.36;108250;1253;73307;-70
2024/04/02 09:26:44;;;;;;;50.30;8.50;;;;;;;33.43;24.94;98363.55;108170;1253;60372;-70
2024/04/02 09:29:12;;;;;;;48.70;9.60;;;;;;;33.11;25.25;98364.21;108122;1254;60438;-70
2024/04/02 09:31:39;;;;;;;52.20;8.00;;;;;;;32.95;25.56;98361.50;108261;1252;74873;-70
2024/04/02 09:34:08;;;;;;;56.40;8.90;;;;;;;32.73;25.52;98361.91;108081;1257;70480;-70
2024/04/02 09:36:48;;;;;;;63.20;10.10;;;;;;;32.63;25.81;98348.10;108216;1251;71725;-70
2024/04/02 09:39:16;;;;;;;57.30;8.80;;;;;;;32.88;25.35;98343.48;108259;1256;62298;-69
2024/04/02 09:41:44;;;;;;;64.20;10.10;;;;;;;32.86;25.25;98336.02;108236;1251;60313;-70
2024/04/02 09:44:29;;;;;;;52.00;8.70;;;;;;;32.85;25.20;98321.67;108295;1251;74564;-67
2024/04/02 09:46:57;;;;;;;66.40;9.50;;;;;;;32.86;25.49;98317.06;108216;1251;70641;-70
2024/04/02 09:49:24;;;;;;;63.50;10.20;;;;;;;33.00;24.90;98313.27;108150;1254;71053;-72
2024/04/02 09:51:54;;;;;;;62.90;10.90;;;;;;;33.19;24.80;98300.54;108224;1251;59825;-71
2024/04/02 09:54:24;;;;;;;55.00;9.00;;;;;;;33.10;24.90;98292.30;108067;1251;62254;-70
2024/04/02 09:56:51;;;;;;;57.20;9.00;;;;;;;33.16;25.02;98281.84;108253;1251;67136;-68
2024/04/02 09:59:18;;;;;;;54.10;8.60;;;;;;;33.30;24.77;98271.58;108059;1251;69015;-69
2024/04/02 10:01:46;;;;;;;69.10;10.00;;;;;;;33.55;24.83;98267.30;108265;1251;64640;-71
2024/04/02 10:04:15;;;;;;;66.60;8.80;;;;;;;33.59;24.92;98267.54;108278;1251;60539;-70
2024/04/02 10:06:43;;;;;;;43.70;8.60;;;;;;;33.54;24.95;98263.42;108149;1250;62220;-70
2024/04/02 10:09:40;;;;;;;49.50;7.60;;;;;;;33.16;23.95;98264.52;108204;1251;75879;-69
2024/04/02 10:12:08;;;;;;;59.20;9.70;;;;;;;32.67;23.44;98261.91;108224;1251;69837;-70
2024/04/02 10:14:39;;;;;;;60.80;8.90;;;;;;;32.20;24.01;98259.09;108291;1251;72410;-71
2024/04/02 10:17:13;;;;;;;59.10;8.30;;;;;;;32.23;23.80;98263.93;108276;1251;59919;-71
2024/04/02 10:19:44;;;;;;;74.70;10.40;;;;;;;31.80;24.10;98255.33;108155;1251;59323;-69
2024/04/02 10:22:11;;;;;;;51.60;7.70;;;;;;;31.65;24.47;98263.95;108033;1251;76317;-71
2024/04/02 10:24:39;;;;;;;70.00;8.20;;;;;;;30.97;25.02;98261.09;108186;1251;70611;-70
2024/04/02 10:27:09;;;;;;;51.30;7.00;;;;;;;31.07;25.06;98254.92;108228;1259;72612;-70
2024/04/02 10:29:36;;;;;;;57.40;8.40;;;;;;;30.85;25.24;98256.73;108085;1251;60533;-70
2024/04/02 10:32:05;;;;;;;75.70;9.50;;;;;;;30.83;25.01;98247.98;108241;1251;60208;-70
2024/04/02 10:34:32;;;;;;;64.80;9.90;;;;;;;30.93;25.25;98252.47;108070;1251;74597;-70
2024/04/02 10:37:02;;;;;;;46.40;6.60;;;;;;;31.17;25.11;98239.57;108298;1251;71419;-72
2024/04/02 10:39:33;;;;;;;37.50;7.10;;;;;;;30.96;25.13;98250.38;108049;1254;74663;-71
2024/04/02 10:42:03;;;;;;;77.40;8.70;;;;;;;30.66;25.49;98249.48;108187;1253;60286;-70
2024/04/02 10:44:30;;;;;;;46.00;8.60;;;;;;;30.51;25.84;98232.11;108107;1253;60077;-70
2024/04/02 10:46:59;;;;;;;61.30;10.50;;;;;;;30.51;25.71;98235.77;108055;1254;76109;-69
2024/04/02 10:49:27;;;;;;;60.90;9.40;;;;;;;30.60;25.77;98229.30;108121;1254;72616;-69
2024/04/02 10:52:03;;;;;;;67.60;10.30;;;;;;;31.09;25.34;98221.66;108139;1253;71678;-69
2024/04/02 10:54:30;;;;;;;70.90;9.90;;;;;;;30.78;25.62;98231.20;108185;1253;60313;-71
2024/04/02 10:56:58;;;;;;;40.90;6.50;;;;;;;30.75;25.41;98223.65;108159;1253;61316;-71
2024/04/02 10:59:25;;;;;;;68.20;9.60;;;;;;;30.51;25.86;98226.52;108044;1253;74047;-71
2024/04/02 11:01:55;;;;;;;57.30;9.90;;;;;;;30.88;25.88;98220.48;108135;1254;70889;-69
2024/04/02 11:04:23;;;;;;;54.40;8.30;;;;;;;30.70;25.86;98217.10;108043;1252;75357;-71
2024/04/02 11:06:50;;;;;;;62.30;10.30;;;;;;;30.47;26.17;98224.11;108024;1254;60977;-70
2024/04/02 11:09:18;;;;;;;60.90;10.10;;;;;;;30.76;25.74;98220.45;108069;1254;60327;-69
2024/04/02 11:11:45;;;;;;;63.80;9.10;;;;;;;30.94;25.50;98206.88;108132;1252;74063;-70
2024/04/02 11:14:14;;;;;;;47.90;8.10;;;;;;;30.93;25.69;98207.20;108080;1254;70298;-69
2024/04/02 11:16:43;;;;;;;61.00;9.40;;;;;;;30.99;25.40;98207.96;108074;1253;71495;-70
2024/04/02 11:19:11;;;;;;;57.00;10.00;;;;;;;31.16;25.30;98201.98;108116;1254;60481;-70
2024/04/02 11:21:38;;;;;;;47.10;8.20;;;;;;;30.89;25.54;98191.33;108080;1252;60841;-70